sensor_id;sensor_type;location;lat;lon;timestamp;temperature;humidity
45383;DHT22;42455;51.660;5.824;2024-03-02T00:03:15;11.0;84.0
45383;DHT22;42455;51.660;5.824;2024-03-02T00:08:25;11.0;84.0
45383;DHT22;42455;51.660;5.824;2024-03-02T00:13:29;11.1;84.0
45383;DHT22;42455;51.660;5.824;2024-03-02T00:18:34;11.1;84.0
45383;DHT22;42455;51.660;5.824;2024-03-02T00:23:40;11.1;84.0
45383;DHT22;42455;51.660;5.824;2024-03-02T00:28:46;11.1;84.0
45383;DHT22;42455;51.660;5.824;2024-03-02T00:33:53;11.1;84.0
45383;DHT22;42455;51.660;5.824;2024-03-02T00:38:59;11.1;84.0
45383;DHT22;42455;51.660;5.824;2024-03-02T00:44:06;11.1;84.0
45383;DHT22;42455;51.660;5.824;2024-03-02T00:49:23;11.1;84.0
45383;DHT22;42455;51.660;5.824;2024-03-02T00:54:21;11.1;84.5
45383;DHT22;42455;51.660;5.824;2024-03-02T00:59:24;11.2;84.5
45383;DHT22;42455;51.660;5.824;2024-03-02T01:04:30;11.2;84.5
45383;DHT22;42455;51.660;5.824;2024-03-02T01:09:36;11.2;84.5
45383;DHT22;42455;51.660;5.824;2024-03-02T01:14:42;11.2;84.5
45383;DHT22;42455;51.660;5.824;2024-03-02T01:19:48;11.2;85.0
45383;DHT22;42455;51.660;5.824;2024-03-02T01:24:54;11.1;85.0
45383;DHT22;42455;51.660;5.824;2024-03-02T01:30:01;11.1;85.5
45383;DHT22;42455;51.660;5.824;2024-03-02T01:35:07;11.1;85.5
45383;DHT22;42455;51.660;5.824;2024-03-02T01:40:13;11.1;85.5
45383;DHT22;42455;51.660;5.824;2024-03-02T01:45:20;11.0;85.5
45383;DHT22;42455;51.660;5.824;2024-03-02T01:50:32;11.0;85.5
45383;DHT22;42455;51.660;5.824;2024-03-02T01:55:32;11.0;85.5
45383;DHT22;42455;51.660;5.824;2024-03-02T02:00:38;10.9;86.0
45383;DHT22;42455;51.660;5.824;2024-03-02T02:05:44;10.9;86.0
45383;DHT22;42455;51.660;5.824;2024-03-02T02:10:50;10.9;86.0
45383;DHT22;42455;51.660;5.824;2024-03-02T02:16:03;10.9;86.0
45383;DHT22;42455;51.660;5.824;2024-03-02T02:21:03;10.9;86.0
45383;DHT22;42455;51.660;5.824;2024-03-02T02:26:09;10.8;86.0
45383;DHT22;42455;51.660;5.824;2024-03-02T02:31:16;10.8;86.0
45383;DHT22;42455;51.660;5.824;2024-03-02T02:36:22;10.8;86.0
45383;DHT22;42455;51.660;5.824;2024-03-02T02:41:28;10.7;86.0
45383;DHT22;42455;51.660;5.824;2024-03-02T02:46:34;10.7;86.0
45383;DHT22;42455;51.660;5.824;2024-03-02T02:51:40;10.7;86.5
45383;DHT22;42455;51.660;5.824;2024-03-02T02:56:46;10.7;86.5
45383;DHT22;42455;51.660;5.824;2024-03-02T03:01:52;10.6;86.5
45383;DHT22;42455;51.660;5.824;2024-03-02T03:06:59;10.6;86.5
45383;DHT22;42455;51.660;5.824;2024-03-02T03:12:05;10.5;87.0
45383;DHT22;42455;51.660;5.824;2024-03-02T03:17:11;10.5;87.5
45383;DHT22;42455;51.660;5.824;2024-03-02T03:22:17;10.4;87.5
45383;DHT22;42455;51.660;5.824;2024-03-02T03:27:24;10.4;87.5
45383;DHT22;42455;51.660;5.824;2024-03-02T03:32:30;10.4;87.5
45383;DHT22;42455;51.660;5.824;2024-03-02T03:37:36;10.3;88.0
45383;DHT22;42455;51.660;5.824;2024-03-02T03:42:41;10.3;88.0
45383;DHT22;42455;51.660;5.824;2024-03-02T03:47:47;10.3;88.0
45383;DHT22;42455;51.660;5.824;2024-03-02T03:52:54;10.2;88.0
45383;DHT22;42455;51.660;5.824;2024-03-02T03:58:00;10.2;88.5
45383;DHT22;42455;51.660;5.824;2024-03-02T04:03:06;10.2;88.5
45383;DHT22;42455;51.660;5.824;2024-03-02T04:08:12;10.2;88.5
45383;DHT22;42455;51.660;5.824;2024-03-02T04:13:17;10.1;89.0
45383;DHT22;42455;51.660;5.824;2024-03-02T04:18:24;10.1;89.0
45383;DHT22;42455;51.660;5.824;2024-03-02T04:23:30;10.1;89.0
45383;DHT22;42455;51.660;5.824;2024-03-02T04:28:36;10.1;89.0
45383;DHT22;42455;51.660;5.824;2024-03-02T04:33:43;10.1;89.0
45383;DHT22;42455;51.660;5.824;2024-03-02T04:38:49;10.1;89.0
45383;DHT22;42455;51.660;5.824;2024-03-02T04:43:55;10.0;89.0
45383;DHT22;42455;51.660;5.824;2024-03-02T04:49:01;10.0;89.0
45383;DHT22;42455;51.660;5.824;2024-03-02T04:54:07;10.0;89.0
45383;DHT22;42455;51.660;5.824;2024-03-02T04:59:13;9.9;89.0
45383;DHT22;42455;51.660;5.824;2024-03-02T05:04:19;9.9;88.5
45383;DHT22;42455;51.660;5.824;2024-03-02T05:09:26;9.8;88.5
45383;DHT22;42455;51.660;5.824;2024-03-02T05:14:32;9.8;88.5
45383;DHT22;42455;51.660;5.824;2024-03-02T05:19:38;9.8;89.0
45383;DHT22;42455;51.660;5.824;2024-03-02T05:24:44;9.8;89.0
45383;DHT22;42455;51.660;5.824;2024-03-02T05:29:50;9.8;89.0
45383;DHT22;42455;51.660;5.824;2024-03-02T05:34:57;9.7;89.0
45383;DHT22;42455;51.660;5.824;2024-03-02T05:40:03;9.7;89.0
45383;DHT22;42455;51.660;5.824;2024-03-02T05:50:15;9.7;89.0
45383;DHT22;42455;51.660;5.824;2024-03-02T05:55:22;9.7;89.0
45383;DHT22;42455;51.660;5.824;2024-03-02T06:00:28;9.7;89.0
45383;DHT22;42455;51.660;5.824;2024-03-02T06:05:34;9.6;89.0
45383;DHT22;42455;51.660;5.824;2024-03-02T06:10:40;9.6;89.0
45383;DHT22;42455;51.660;5.824;2024-03-02T06:15:46;9.5;89.0
45383;DHT22;42455;51.660;5.824;2024-03-02T06:20:53;9.5;89.0
45383;DHT22;42455;51.660;5.824;2024-03-02T06:25:59;9.4;89.0
45383;DHT22;42455;51.660;5.824;2024-03-02T06:31:05;9.4;89.0
45383;DHT22;42455;51.660;5.824;2024-03-02T06:36:11;9.3;89.5
45383;DHT22;42455;51.660;5.824;2024-03-02T06:41:17;9.3;89.5
45383;DHT22;42455;51.660;5.824;2024-03-02T06:46:24;9.3;89.5
45383;DHT22;42455;51.660;5.824;2024-03-02T06:51:30;9.3;89.5
45383;DHT22;42455;51.660;5.824;2024-03-02T06:56:36;9.2;89.5
45383;DHT22;42455;51.660;5.824;2024-03-02T07:01:42;9.2;89.5
45383;DHT22;42455;51.660;5.824;2024-03-02T07:06:48;9.2;90.0
45383;DHT22;42455;51.660;5.824;2024-03-02T07:11:55;9.3;90.5
45383;DHT22;42455;51.660;5.824;2024-03-02T07:17:01;9.4;90.0
45383;DHT22;42455;51.660;5.824;2024-03-02T07:22:07;9.4;90.0
45383;DHT22;42455;51.660;5.824;2024-03-02T07:27:13;9.4;90.0
45383;DHT22;42455;51.660;5.824;2024-03-02T07:32:19;9.5;90.0
45383;DHT22;42455;51.660;5.824;2024-03-02T07:37:26;9.5;90.0
45383;DHT22;42455;51.660;5.824;2024-03-02T07:42:32;9.6;90.0
45383;DHT22;42455;51.660;5.824;2024-03-02T07:47:38;9.6;90.0
45383;DHT22;42455;51.660;5.824;2024-03-02T07:52:44;9.7;90.5
45383;DHT22;42455;51.660;5.824;2024-03-02T07:57:51;9.9;90.5
45383;DHT22;42455;51.660;5.824;2024-03-02T08:02:57;10.0;90.5
45383;DHT22;42455;51.660;5.824;2024-03-02T08:08:03;10.2;90.5
45383;DHT22;42455;51.660;5.824;2024-03-02T08:13:09;10.3;90.0
45383;DHT22;42455;51.660;5.824;2024-03-02T08:18:15;10.5;90.0
45383;DHT22;42455;51.660;5.824;2024-03-02T08:23:22;10.6;89.5
45383;DHT22;42455;51.660;5.824;2024-03-02T08:28:28;10.7;89.0
45383;DHT22;42455;51.660;5.824;2024-03-02T08:33:34;10.8;88.5
45383;DHT22;42455;51.660;5.824;2024-03-02T08:38:40;10.9;88.5
45383;DHT22;42455;51.660;5.824;2024-03-02T08:43:46;10.9;88.0
45383;DHT22;42455;51.660;5.824;2024-03-02T08:48:53;11.0;88.0
45383;DHT22;42455;51.660;5.824;2024-03-02T08:53:59;11.1;88.0
45383;DHT22;42455;51.660;5.824;2024-03-02T08:59:05;11.1;87.5
45383;DHT22;42455;51.660;5.824;2024-03-02T09:04:11;11.2;87.5
45383;DHT22;42455;51.660;5.824;2024-03-02T09:09:17;11.3;87.5
45383;DHT22;42455;51.660;5.824;2024-03-02T09:14:24;11.4;87.5
45383;DHT22;42455;51.660;5.824;2024-03-02T09:19:30;11.5;87.0
45383;DHT22;42455;51.660;5.824;2024-03-02T09:24:36;11.5;87.0
45383;DHT22;42455;51.660;5.824;2024-03-02T09:29:42;11.6;87.0
45383;DHT22;42455;51.660;5.824;2024-03-02T09:34:48;11.7;87.0
45383;DHT22;42455;51.660;5.824;2024-03-02T09:39:55;11.8;86.5
45383;DHT22;42455;51.660;5.824;2024-03-02T09:45:00;11.9;86.5
45383;DHT22;42455;51.660;5.824;2024-03-02T09:50:06;12.0;86.5
45383;DHT22;42455;51.660;5.824;2024-03-02T09:55:13;12.2;86.0
45383;DHT22;42455;51.660;5.824;2024-03-02T10:00:19;12.3;85.5
45383;DHT22;42455;51.660;5.824;2024-03-02T10:05:25;12.4;85.5
45383;DHT22;42455;51.660;5.824;2024-03-02T10:10:37;12.5;85.0
45383;DHT22;42455;51.660;5.824;2024-03-02T10:15:38;12.7;85.0
45383;DHT22;42455;51.660;5.824;2024-03-02T10:20:43;12.8;84.5
45383;DHT22;42455;51.660;5.824;2024-03-02T10:25:50;13.0;84.0
45383;DHT22;42455;51.660;5.824;2024-03-02T10:30:57;13.1;83.5
45383;DHT22;42455;51.660;5.824;2024-03-02T10:36:02;13.2;83.0
45383;DHT22;42455;51.660;5.824;2024-03-02T10:41:08;13.3;82.5
45383;DHT22;42455;51.660;5.824;2024-03-02T10:46:15;13.4;82.5
45383;DHT22;42455;51.660;5.824;2024-03-02T10:51:21;13.5;82.5
45383;DHT22;42455;51.660;5.824;2024-03-02T10:56:30;13.7;82.0
45383;DHT22;42455;51.660;5.824;2024-03-02T11:01:33;13.8;81.0
45383;DHT22;42455;51.660;5.824;2024-03-02T11:06:48;13.9;80.5
45383;DHT22;42455;51.660;5.824;2024-03-02T11:11:53;14.0;80.5
45383;DHT22;42455;51.660;5.824;2024-03-02T11:16:52;14.1;80.5
45383;DHT22;42455;51.660;5.824;2024-03-02T11:21:58;14.3;80.0
45383;DHT22;42455;51.660;5.824;2024-03-02T11:27:06;14.4;79.5
45383;DHT22;42455;51.660;5.824;2024-03-02T11:32:17;14.5;79.0
45383;DHT22;42455;51.660;5.824;2024-03-02T11:37:19;14.6;79.0
45383;DHT22;42455;51.660;5.824;2024-03-02T11:42:23;14.7;78.5
45383;DHT22;42455;51.660;5.824;2024-03-02T11:47:31;14.8;78.0
45383;DHT22;42455;51.660;5.824;2024-03-02T11:52:36;14.9;78.0
45383;DHT22;42455;51.660;5.824;2024-03-02T11:57:42;15.0;78.0
45383;DHT22;42455;51.660;5.824;2024-03-02T12:02:59;15.1;77.5
45383;DHT22;42455;51.660;5.824;2024-03-02T12:07:55;15.3;77.5
45383;DHT22;42455;51.660;5.824;2024-03-02T12:13:01;15.4;77.0
45383;DHT22;42455;51.660;5.824;2024-03-02T12:18:06;15.5;76.5
45383;DHT22;42455;51.660;5.824;2024-03-02T12:23:13;15.6;76.0
45383;DHT22;42455;51.660;5.824;2024-03-02T12:28:19;15.6;75.5
45383;DHT22;42455;51.660;5.824;2024-03-02T12:33:25;15.6;75.5
45383;DHT22;42455;51.660;5.824;2024-03-02T12:38:31;15.7;75.5
45383;DHT22;42455;51.660;5.824;2024-03-02T12:43:38;15.7;75.0
45383;DHT22;42455;51.660;5.824;2024-03-02T12:48:44;15.7;75.0
45383;DHT22;42455;51.660;5.824;2024-03-02T12:53:52;15.9;75.0
45383;DHT22;42455;51.660;5.824;2024-03-02T12:58:56;16.0;74.5
45383;DHT22;42455;51.660;5.824;2024-03-02T13:04:02;16.0;74.0
45383;DHT22;42455;51.660;5.824;2024-03-02T13:09:08;16.1;73.5
45383;DHT22;42455;51.660;5.824;2024-03-02T13:14:15;16.1;73.0
45383;DHT22;42455;51.660;5.824;2024-03-02T13:19:21;16.2;72.5
45383;DHT22;42455;51.660;5.824;2024-03-02T13:24:27;16.3;72.5
45383;DHT22;42455;51.660;5.824;2024-03-02T13:29:34;16.4;72.5
45383;DHT22;42455;51.660;5.824;2024-03-02T13:34:39;16.5;72.5
45383;DHT22;42455;51.660;5.824;2024-03-02T13:39:45;16.7;72.0
45383;DHT22;42455;51.660;5.824;2024-03-02T13:44:52;16.9;72.0
45383;DHT22;42455;51.660;5.824;2024-03-02T13:49:58;16.9;71.5
45383;DHT22;42455;51.660;5.824;2024-03-02T13:55:04;17.0;70.5
45383;DHT22;42455;51.660;5.824;2024-03-02T14:00:11;16.9;70.5
45383;DHT22;42455;51.660;5.824;2024-03-02T14:05:17;16.9;70.0
45383;DHT22;42455;51.660;5.824;2024-03-02T14:10:23;16.9;70.5
45383;DHT22;42455;51.660;5.824;2024-03-02T14:15:29;17.0;70.5
45383;DHT22;42455;51.660;5.824;2024-03-02T14:20:35;17.0;70.0
45383;DHT22;42455;51.660;5.824;2024-03-02T14:25:41;17.0;69.5
45383;DHT22;42455;51.660;5.824;2024-03-02T14:30:48;17.0;69.5
45383;DHT22;42455;51.660;5.824;2024-03-02T14:35:54;17.1;69.5
45383;DHT22;42455;51.660;5.824;2024-03-02T14:41:00;17.1;69.5
45383;DHT22;42455;51.660;5.824;2024-03-02T14:46:06;17.2;70.0
45383;DHT22;42455;51.660;5.824;2024-03-02T14:51:13;17.2;69.5
45383;DHT22;42455;51.660;5.824;2024-03-02T14:56:19;17.2;69.0
45383;DHT22;42455;51.660;5.824;2024-03-02T15:01:25;17.2;69.0
45383;DHT22;42455;51.660;5.824;2024-03-02T15:06:31;17.1;68.5
45383;DHT22;42455;51.660;5.824;2024-03-02T15:11:37;17.0;68.0
45383;DHT22;42455;51.660;5.824;2024-03-02T15:16:42;16.8;68.5
45383;DHT22;42455;51.660;5.824;2024-03-02T15:21:49;16.8;68.5
45383;DHT22;42455;51.660;5.824;2024-03-02T15:26:55;16.8;69.0
45383;DHT22;42455;51.660;5.824;2024-03-02T15:32:02;16.7;69.0
45383;DHT22;42455;51.660;5.824;2024-03-02T15:37:07;16.7;69.0
45383;DHT22;42455;51.660;5.824;2024-03-02T15:42:14;16.6;69.5
45383;DHT22;42455;51.660;5.824;2024-03-02T15:47:20;16.5;70.0
45383;DHT22;42455;51.660;5.824;2024-03-02T15:52:26;16.5;70.5
45383;DHT22;42455;51.660;5.824;2024-03-02T15:57:32;16.5;70.5
45383;DHT22;42455;51.660;5.824;2024-03-02T16:02:38;16.5;70.5
45383;DHT22;42455;51.660;5.824;2024-03-02T16:07:45;16.4;71.0
45383;DHT22;42455;51.660;5.824;2024-03-02T16:12:51;16.3;71.5
45383;DHT22;42455;51.660;5.824;2024-03-02T16:17:57;16.2;72.0
45383;DHT22;42455;51.660;5.824;2024-03-02T16:23:03;16.2;72.0
45383;DHT22;42455;51.660;5.824;2024-03-02T19:06:22;14.4;77.0
45383;DHT22;42455;51.660;5.824;2024-03-02T19:11:28;14.5;77.0
45383;DHT22;42455;51.660;5.824;2024-03-02T19:16:34;14.5;77.0
45383;DHT22;42455;51.660;5.824;2024-03-02T19:21:40;14.5;77.0
45383;DHT22;42455;51.660;5.824;2024-03-02T19:26:47;14.5;77.0
45383;DHT22;42455;51.660;5.824;2024-03-02T19:31:53;14.5;77.0
45383;DHT22;42455;51.660;5.824;2024-03-02T19:36:59;14.5;77.0
45383;DHT22;42455;51.660;5.824;2024-03-02T19:42:05;14.6;77.0
45383;DHT22;42455;51.660;5.824;2024-03-02T19:47:12;14.6;77.0
45383;DHT22;42455;51.660;5.824;2024-03-02T19:52:18;14.6;76.5
45383;DHT22;42455;51.660;5.824;2024-03-02T19:57:24;14.6;76.5
45383;DHT22;42455;51.660;5.824;2024-03-02T20:02:30;14.7;76.5
45383;DHT22;42455;51.660;5.824;2024-03-02T20:07:36;14.6;76.0
45383;DHT22;42455;51.660;5.824;2024-03-02T20:12:43;14.6;76.0
45383;DHT22;42455;51.660;5.824;2024-03-02T20:17:49;14.6;76.0
45383;DHT22;42455;51.660;5.824;2024-03-02T20:22:55;14.5;76.0
45383;DHT22;42455;51.660;5.824;2024-03-02T20:28:01;14.4;76.0
45383;DHT22;42455;51.660;5.824;2024-03-02T20:33:07;14.3;76.0
45383;DHT22;42455;51.660;5.824;2024-03-02T20:38:14;14.3;76.5
45383;DHT22;42455;51.660;5.824;2024-03-02T20:43:20;14.2;76.5
45383;DHT22;42455;51.660;5.824;2024-03-02T20:48:25;14.2;76.5
45383;DHT22;42455;51.660;5.824;2024-03-02T20:53:32;14.2;76.5
45383;DHT22;42455;51.660;5.824;2024-03-02T20:58:37;14.2;76.5
45383;DHT22;42455;51.660;5.824;2024-03-02T21:03:44;14.2;76.5
45383;DHT22;42455;51.660;5.824;2024-03-02T21:08:50;14.2;76.5
45383;DHT22;42455;51.660;5.824;2024-03-02T21:13:56;14.2;76.5
45383;DHT22;42455;51.660;5.824;2024-03-02T21:19:01;14.2;76.5
45383;DHT22;42455;51.660;5.824;2024-03-02T21:24:08;14.2;76.5
45383;DHT22;42455;51.660;5.824;2024-03-02T21:29:16;14.2;76.5
45383;DHT22;42455;51.660;5.824;2024-03-02T21:34:20;14.1;76.5
45383;DHT22;42455;51.660;5.824;2024-03-02T21:39:26;14.1;76.5
45383;DHT22;42455;51.660;5.824;2024-03-02T21:44:32;14.0;76.5
45383;DHT22;42455;51.660;5.824;2024-03-02T21:49:39;13.9;76.5
45383;DHT22;42455;51.660;5.824;2024-03-02T21:54:45;13.9;76.5
45383;DHT22;42455;51.660;5.824;2024-03-02T21:59:51;13.8;76.5
45383;DHT22;42455;51.660;5.824;2024-03-02T22:04:57;13.7;76.5
45383;DHT22;42455;51.660;5.824;2024-03-02T22:10:04;13.6;77.0
45383;DHT22;42455;51.660;5.824;2024-03-02T22:15:10;13.6;77.0
45383;DHT22;42455;51.660;5.824;2024-03-02T22:20:16;13.5;77.0
45383;DHT22;42455;51.660;5.824;2024-03-02T22:25:22;13.4;77.5
45383;DHT22;42455;51.660;5.824;2024-03-02T22:30:28;13.4;77.5
45383;DHT22;42455;51.660;5.824;2024-03-02T22:35:35;13.4;78.0
45383;DHT22;42455;51.660;5.824;2024-03-02T22:40:41;13.4;78.0
45383;DHT22;42455;51.660;5.824;2024-03-02T22:45:47;13.3;78.0
45383;DHT22;42455;51.660;5.824;2024-03-02T22:50:53;13.3;78.5
45383;DHT22;42455;51.660;5.824;2024-03-02T22:55:59;13.3;78.5
45383;DHT22;42455;51.660;5.824;2024-03-02T23:01:06;13.3;78.5
45383;DHT22;42455;51.660;5.824;2024-03-02T23:06:12;13.3;79.0
45383;DHT22;42455;51.660;5.824;2024-03-02T23:11:18;13.4;79.0
45383;DHT22;42455;51.660;5.824;2024-03-02T23:16:24;13.4;79.5
45383;DHT22;42455;51.660;5.824;2024-03-02T23:21:31;13.5;79.0
45383;DHT22;42455;51.660;5.824;2024-03-02T23:26:37;13.5;79.0
45383;DHT22;42455;51.660;5.824;2024-03-02T23:31:43;13.5;79.0
45383;DHT22;42455;51.660;5.824;2024-03-02T23:36:49;13.6;79.0
45383;DHT22;42455;51.660;5.824;2024-03-02T23:41:55;13.7;79.0
45383;DHT22;42455;51.660;5.824;2024-03-02T23:47:02;13.7;79.0
45383;DHT22;42455;51.660;5.824;2024-03-02T23:52:08;13.7;79.0
45383;DHT22;42455;51.660;5.824;2024-03-02T23:57:14;13.7;79.0
